Time;durP1;ratioP1;P1;durP2;ratioP2;P2;SDS_P1;SDS_P2;PMS_P1;PMS_P2;Temp;Humidity;BMP_temperature;BMP_pressure;BME280_temperature;BME280_humidity;BME280_pressure;Samples;Min_cycle;Max_cycle;Signal;HPM_P1;HPM_P2
2021/12/04 00:00:13;;;;;;;27.08;15.63;;;26.40;2201.60;;;;;;5051147;28;20083;-74
2021/12/04 00:02:39;;;;;;;25.38;14.70;;;26.50;2201.60;;;;;;5050682;28;20091;-74
2021/12/04 00:05:06;;;;;;;29.75;15.80;;;26.30;2201.60;;;;;;5032254;28;20116;-73
2021/12/04 00:07:34;;;;;;;31.25;16.42;;;26.30;2201.60;;;;;;5028975;28;20045;-74
2021/12/04 00:10:03;;;;;;;26.70;15.93;;;26.50;2201.60;;;;;;5049145;28;20037;-73
2021/12/04 00:12:33;;;;;;;30.45;18.17;;;26.40;2201.60;;;;;;5050719;28;20108;-74
2021/12/04 00:14:59;;;;;;;28.55;16.67;;;26.40;2201.60;;;;;;5032827;28;20025;-74
2021/12/04 00:17:27;;;;;;;26.98;17.13;;;26.50;2201.60;;;;;;5050943;28;20025;-73
2021/12/04 00:19:53;;;;;;;21.52;15.32;;;51.20;2227.20;;;;;;5033019;28;20029;-73
2021/12/04 00:22:19;;;;;;;26.88;17.27;;;26.50;2201.60;;;;;;5031128;28;20068;-73
2021/12/04 00:24:45;;;;;;;28.90;17.45;;;26.50;2201.60;;;;;;5030579;28;20025;-73
2021/12/04 00:27:11;;;;;;;29.10;16.65;;;26.40;2201.60;;;;;;5030991;28;20022;-73
2021/12/04 00:29:37;;;;;;;34.97;16.92;;;26.30;2201.60;;;;;;5033283;28;20033;-74
2021/12/04 00:32:10;;;;;;;37.90;18.15;;;26.20;2201.60;;;;;;5034995;28;20032;-74
2021/12/04 00:34:41;;;;;;;29.00;16.30;;;26.20;2201.60;;;;;;5058822;28;20055;-74
2021/12/04 00:37:37;;;;;;;25.45;15.25;;;26.10;2201.60;;;;;;5049669;28;20372;-74
2021/12/04 00:51:00;;;;;;;29.83;15.75;;;26.20;2201.60;;;;;;5054475;28;20091;-73
2021/12/04 00:53:26;;;;;;;28.08;15.73;;;26.30;2201.60;;;;;;5035416;28;20384;-73
2021/12/04 00:55:52;;;;;;;26.95;15.60;;;26.20;2201.60;;;;;;5042990;28;20060;-74
2021/12/04 00:58:18;;;;;;;27.55;17.08;;;26.20;2201.60;;;;;;5053246;28;20029;-73
2021/12/04 01:00:43;;;;;;;27.95;17.55;;;26.20;2201.60;;;;;;5055469;28;20024;-74
2021/12/04 01:03:09;;;;;;;26.17;15.65;;;26.20;2201.60;;;;;;5064478;28;20028;-73
2021/12/04 01:05:35;;;;;;;29.67;17.30;;;26.20;2201.60;;;;;;5048068;28;20107;-74
2021/12/04 01:08:01;;;;;;;28.02;14.65;;;26.10;2201.60;;;;;;5073311;28;20049;-74
2021/12/04 01:10:27;;;;;;;27.10;15.13;;;26.20;2201.60;;;;;;5073370;28;20123;-74
2021/12/04 01:12:56;;;;;;;26.67;16.40;;;26.20;2201.60;;;;;;5056127;28;20504;-73
2021/12/04 01:15:21;;;;;;;27.48;16.15;;;26.30;2201.60;;;;;;5073452;28;20063;-73
2021/12/04 01:17:47;;;;;;;26.80;16.23;;;26.30;2201.60;;;;;;5039681;28;20495;-73
2021/12/04 01:20:13;;;;;;;27.30;15.25;;;26.20;2201.60;;;;;;5053273;28;20498;-73
2021/12/04 01:22:39;;;;;;;28.70;16.05;;;26.20;2201.60;;;;;;5053178;28;20111;-73
2021/12/04 01:25:06;;;;;;;26.55;17.20;;;26.20;2201.60;;;;;;5053580;28;20028;-74
2021/12/04 01:27:31;;;;;;;31.58;15.63;;;26.10;2201.60;;;;;;5052952;28;20029;-74
2021/12/04 01:29:57;;;;;;;25.95;13.90;;;26.10;2201.60;;;;;;5035134;28;20124;-74
2021/12/04 01:32:23;;;;;;;24.45;13.50;;;26.10;2201.60;;;;;;5036753;28;20033;-73
2021/12/04 01:34:49;;;;;;;24.90;14.25;;;26.10;2201.60;;;;;;5052857;28;20185;-73
2021/12/04 01:37:14;;;;;;;25.83;14.38;;;26.10;2201.60;;;;;;5052504;28;20033;-73
2021/12/04 01:39:40;;;;;;;26.10;15.05;;;26.10;2201.60;;;;;;5052644;28;20029;-73
2021/12/04 01:42:06;;;;;;;23.48;14.27;;;26.10;2201.60;;;;;;5034588;28;20175;-74
2021/12/04 01:44:32;;;;;;;28.92;15.88;;;26.10;2201.60;;;;;;5052470;28;20131;-74
2021/12/04 01:46:57;;;;;;;23.58;14.45;;;26.00;2201.60;;;;;;5052841;28;20476;-73
2021/12/04 01:49:24;;;;;;;22.52;14.18;;;26.10;2201.60;;;;;;5052853;28;20037;-73
2021/12/04 01:51:49;;;;;;;25.30;16.10;;;25.80;2201.60;;;;;;5034852;28;20479;-73
2021/12/04 01:54:15;;;;;;;33.50;16.45;;;25.70;2201.60;;;;;;5052533;28;20021;-74
2021/12/04 01:56:41;;;;;;;23.52;14.48;;;25.70;2201.60;;;;;;5035068;28;20028;-74
2021/12/04 01:59:08;;;;;;;25.27;15.60;;;25.70;2201.60;;;;;;5052349;28;20554;-74
2021/12/04 02:01:34;;;;;;;28.52;15.82;;;25.60;2201.60;;;;;;5052928;28;20020;-73
2021/12/04 02:04:00;;;;;;;30.23;16.80;;;25.60;2201.60;;;;;;5034438;28;20024;-73
2021/12/04 02:06:26;;;;;;;37.20;18.25;;;25.60;2201.60;;;;;;5035048;28;20032;-73
2021/12/04 02:08:52;;;;;;;36.10;17.85;;;25.70;2201.60;;;;;;5033956;28;20041;-74
2021/12/04 02:11:17;;;;;;;34.80;18.52;;;25.70;2201.60;;;;;;5052482;28;20040;-73
2021/12/04 02:13:43;;;;;;;26.90;16.85;;;25.70;2201.60;;;;;;5033943;28;20489;-74
2021/12/04 02:16:20;;;;;;;34.20;17.40;;;25.70;2201.60;;;;;;5034381;28;20029;-73
2021/12/04 02:18:46;;;;;;;29.38;17.25;;;25.60;2201.60;;;;;;5052390;28;20024;-73
2021/12/04 02:21:14;;;;;;;33.85;17.25;;;25.60;2201.60;;;;;;5052075;28;20025;-74
2021/12/04 02:23:40;;;;;;;29.08;16.55;;;0.90;2201.60;;;;;;5063304;28;20039;-74
2021/12/04 02:26:06;;;;;;;29.90;17.55;;;0.90;2201.60;;;;;;5071789;28;20021;-74
2021/12/04 02:28:32;;;;;;;26.52;17.27;;;0.90;2201.60;;;;;;5072291;28;20021;-74
2021/12/04 02:30:59;;;;;;;26.45;15.80;;;0.80;2201.60;;;;;;5053879;28;20033;-74
2021/12/04 02:33:24;;;;;;;34.22;16.77;;;0.90;2201.60;;;;;;5072276;28;20020;-73
2021/12/04 02:35:56;;;;;;;28.63;15.07;;;0.80;2201.60;;;;;;5071652;28;20024;-73
2021/12/04 02:38:26;;;;;;;30.45;17.08;;;0.90;2201.60;;;;;;5071482;28;20514;-74
2021/12/04 02:40:53;;;;;;;31.13;15.82;;;0.90;2201.60;;;;;;5053614;28;20063;-74
2021/12/04 02:43:19;;;;;;;27.75;17.65;;;0.90;2201.60;;;;;;5071642;28;20383;-74
2021/12/04 02:45:45;;;;;;;26.80;16.67;;;0.90;2201.60;;;;;;5054126;28;20021;-73
2021/12/04 02:48:11;;;;;;;30.23;17.10;;;0.80;2201.60;;;;;;5053140;28;20127;-73
2021/12/04 02:50:37;;;;;;;30.95;16.70;;;0.70;2201.60;;;;;;5071932;28;20028;-73
2021/12/04 02:53:03;;;;;;;32.83;16.83;;;0.80;2201.60;;;;;;5045724;28;20029;-73
2021/12/04 02:55:30;;;;;;;33.08;19.02;;;0.70;2201.60;;;;;;5033660;28;20036;-73
2021/12/04 02:57:56;;;;;;;36.92;21.35;;;0.80;2201.60;;;;;;5033981;28;20029;-73
2021/12/04 03:00:24;;;;;;;33.00;18.45;;;0.70;2201.60;;;;;;5051364;28;20039;-73
2021/12/04 03:02:51;;;;;;;36.53;19.20;;;0.60;2201.60;;;;;;5051790;28;20903;-73
2021/12/04 03:05:24;;;;;;;46.08;23.95;;;0.50;2201.60;;;;;;5051294;28;20029;-73
2021/12/04 03:07:51;;;;;;;45.55;23.67;;;0.50;2201.60;;;;;;5033033;28;20132;-72
2021/12/04 03:10:17;;;;;;;40.28;21.33;;;0.50;2201.60;;;;;;5051203;28;20108;-72
2021/12/04 03:12:43;;;;;;;41.80;22.67;;;0.50;2201.60;;;;;;5033692;28;20116;-73
2021/12/04 03:15:09;;;;;;;35.10;18.92;;;0.50;2201.60;;;;;;5051043;28;20108;-72
2021/12/04 03:17:35;;;;;;;38.63;20.38;;;0.60;2201.60;;;;;;5050887;28;20028;-72
2021/12/04 03:20:03;;;;;;;34.13;19.27;;;0.70;2201.60;;;;;;5032523;28;20500;-73
2021/12/04 03:22:29;;;;;;;33.55;19.90;;;0.60;2201.60;;;;;;5051018;28;20032;-73
2021/12/04 03:24:56;;;;;;;39.05;21.30;;;0.90;2201.60;;;;;;5033267;28;20033;-72
2021/12/04 03:27:23;;;;;;;34.20;19.02;;;0.70;2201.60;;;;;;5050867;28;20024;-72
2021/12/04 03:29:55;;;;;;;31.60;19.52;;;0.70;2201.60;;;;;;5051279;28;20100;-72
2021/12/04 03:35:24;;;;;;;37.28;17.75;;;0.80;2201.60;;;;;;5050829;28;20040;-72
2021/12/04 03:43:10;;;;;;;39.80;22.67;;;25.60;2201.60;;;;;;5057907;28;20028;-72
2021/12/04 03:45:39;;;;;;;35.20;18.95;;;25.60;2201.60;;;;;;5029713;28;20048;-72
2021/12/04 03:48:13;;;;;;;35.00;18.83;;;0.90;2201.60;;;;;;5013149;28;20017;-72
2021/12/04 03:50:38;;;;;;;27.27;17.60;;;0.80;2201.60;;;;;;5029574;28;20025;-72
2021/12/04 03:53:05;;;;;;;39.30;18.60;;;0.80;2201.60;;;;;;5045032;28;20087;-73
2021/12/04 03:55:31;;;;;;;29.27;18.05;;;0.60;2201.60;;;;;;5032746;28;20472;-73
2021/12/04 03:57:57;;;;;;;36.08;22.10;;;0.50;2201.60;;;;;;5031308;28;20078;-73
2021/12/04 04:00:27;;;;;;;36.97;20.38;;;0.50;2201.60;;;;;;5043445;28;20025;-73
2021/12/04 04:02:55;;;;;;;31.35;19.58;;;0.50;2201.60;;;;;;5026213;28;20059;-73
2021/12/04 04:05:20;;;;;;;36.45;19.25;;;0.60;2201.60;;;;;;5050640;28;20074;-72
2021/12/04 04:07:46;;;;;;;33.55;19.25;;;0.50;2201.60;;;;;;5054272;28;20131;-73
2021/12/04 04:10:12;;;;;;;34.40;22.20;;;0.70;2201.60;;;;;;5054574;28;20035;-72
2021/12/04 04:12:38;;;;;;;32.88;20.98;;;0.60;2201.60;;;;;;5036326;28;20474;-72
2021/12/04 04:15:04;;;;;;;33.03;18.10;;;0.70;2201.60;;;;;;5054798;28;20108;-73
2021/12/04 04:17:32;;;;;;;32.70;22.30;;;0.80;2201.60;;;;;;5054653;28;20388;-73
2021/12/04 04:19:58;;;;;;;43.00;23.13;;;0.80;2201.60;;;;;;5054941;28;20070;-73
2021/12/04 04:22:24;;;;;;;35.85;20.63;;;0.80;2201.60;;;;;;5054455;28;20449;-73
2021/12/04 04:24:49;;;;;;;40.10;19.05;;;0.80;2201.60;;;;;;5054713;28;20021;-73
2021/12/04 04:27:15;;;;;;;33.97;18.80;;;0.80;2201.60;;;;;;5054279;28;20024;-73
2021/12/04 04:29:41;;;;;;;37.17;19.58;;;0.80;2201.60;;;;;;5054580;28;20032;-73
2021/12/04 04:32:07;;;;;;;33.40;17.92;;;0.80;2201.60;;;;;;5054236;28;20025;-72
2021/12/04 04:34:35;;;;;;;33.30;16.40;;;0.70;2201.60;;;;;;5054590;28;20394;-72
2021/12/04 05:01:58;;;;;;;81.72;42.38;;;0.50;2201.60;;;;;;4991474;28;20033;-71
2021/12/04 05:15:34;;;;;;;41.83;23.48;;;0.70;2201.60;;;;;;4992310;28;20785;-73
2021/12/04 05:18:23;;;;;;;56.22;27.65;;;0.70;2201.60;;;;;;4990706;28;20101;-73
2021/12/04 05:20:55;;;;;;;60.17;29.70;;;0.50;2201.60;;;;;;4991806;28;20031;-74
2021/12/04 05:23:22;;;;;;;71.60;33.95;;;0.50;2201.60;;;;;;4997961;28;20030;-74
2021/12/04 05:25:50;;;;;;;71.00;35.63;;;0.40;2201.60;;;;;;5035232;28;20021;-73
2021/12/04 05:28:16;;;;;;;83.00;38.20;;;0.30;2201.60;;;;;;5035234;28;20025;-73
2021/12/04 05:30:42;;;;;;;72.82;34.45;;;0.20;2201.60;;;;;;5053586;28;20079;-74
2021/12/04 05:33:08;;;;;;;72.93;37.75;;;0.20;2201.60;;;;;;5053145;28;20029;-72
2021/12/04 05:35:34;;;;;;;66.35;34.30;;;0.30;2201.60;;;;;;5053348;28;20028;-72
2021/12/04 05:38:00;;;;;;;64.25;34.08;;;0.30;2201.60;;;;;;5053158;28;20052;-72
2021/12/04 05:40:27;;;;;;;61.47;33.35;;;0.40;2201.60;;;;;;5035289;28;20043;-72
2021/12/04 05:43:00;;;;;;;67.00;33.78;;;0.40;2201.60;;;;;;5052808;28;20021;-72
2021/12/04 05:45:27;;;;;;;72.70;37.70;;;0.50;2201.60;;;;;;5052963;28;20025;-73
2021/12/04 05:48:05;;;;;;;97.88;46.80;;;0.50;2201.60;;;;;;5034823;28;20375;-72
2021/12/04 05:55:56;;;;;;;82.97;43.67;;;0.50;2201.60;;;;;;5052751;28;20040;-72
2021/12/04 05:58:32;;;;;;;82.50;40.30;;;0.50;2201.60;;;;;;5060431;28;20035;-72
2021/12/04 06:01:00;;;;;;;;;;;0.50;2201.60;;;;;;5060600;28;20276;-70
2021/12/04 06:03:26;;;;;;;87.45;42.22;;;0.50;2201.60;;;;;;5043635;28;19912;-72
2021/12/04 06:05:52;;;;;;;102.95;49.90;;;0.50;2201.60;;;;;;5046230;28;20365;-72
2021/12/04 06:08:19;;;;;;;122.15;55.10;;;0.50;2201.60;;;;;;5062301;28;20123;-72
2021/12/04 06:10:47;;;;;;;91.22;50.78;;;0.60;2201.60;;;;;;5039902;28;20025;-72
2021/12/04 06:13:13;;;;;;;101.53;52.22;;;0.60;2201.60;;;;;;5043894;28;20115;-72
2021/12/04 06:15:41;;;;;;;93.03;46.88;;;0.50;2201.60;;;;;;5063721;28;20032;-72
2021/12/04 06:18:08;;;;;;;141.70;76.15;;;0.60;2201.60;;;;;;5061190;28;20387;-73
2021/12/04 06:23:19;;;;;;;124.80;61.63;;;0.50;2201.60;;;;;;5059529;28;20522;-73
2021/12/04 06:25:45;;;;;;;112.75;58.15;;;0.50;2201.60;;;;;;5061523;28;20029;-73
2021/12/04 06:28:11;;;;;;;120.80;64.43;;;0.50;2201.60;;;;;;5060639;28;20116;-73
2021/12/04 06:30:38;;;;;;;170.20;80.00;;;0.50;2201.60;;;;;;5055386;28;20092;-72
2021/12/04 06:33:07;;;;;;;209.38;96.22;;;0.40;2201.60;;;;;;5042388;28;20044;-72
2021/12/04 06:35:36;;;;;;;195.15;91.03;;;0.50;2201.60;;;;;;5060898;28;20430;-72
2021/12/04 06:38:02;;;;;;;165.23;86.32;;;0.50;2201.60;;;;;;5040217;28;20033;-72
2021/12/04 06:40:28;;;;;;;142.77;77.28;;;0.60;2201.60;;;;;;5062629;28;20488;-72
2021/12/04 06:42:58;;;;;;;166.32;80.00;;;0.70;2201.60;;;;;;5057395;28;20158;-73
2021/12/04 06:45:25;;;;;;;133.10;68.45;;;0.50;2201.60;;;;;;5039710;28;20025;-72
2021/12/04 06:47:56;;;;;;;176.00;91.38;;;0.40;2201.60;;;;;;5060983;28;20021;-73
2021/12/04 06:55:46;;;;;;;194.10;93.93;;;0.60;2201.60;;;;;;5058956;28;20083;-73
2021/12/04 06:58:12;;;;;;;130.60;71.40;;;0.70;2201.60;;;;;;5041648;28;20115;-73
2021/12/04 07:00:38;;;;;;;127.88;59.78;;;0.80;2201.60;;;;;;5043943;28;20186;-73
2021/12/04 07:03:04;;;;;;;116.40;60.17;;;25.60;2201.60;;;;;;5057241;28;20029;-73
2021/12/04 07:05:30;;;;;;;103.50;51.13;;;25.70;2201.60;;;;;;5063526;28;20025;-72
2021/12/04 07:07:56;;;;;;;99.13;52.38;;;25.80;2201.60;;;;;;5036002;28;20093;-72
2021/12/04 07:10:22;;;;;;;116.05;64.07;;;25.80;2201.60;;;;;;5043782;28;20039;-72
2021/12/04 07:12:48;;;;;;;124.78;68.50;;;25.90;2201.60;;;;;;5040034;28;20033;-72
2021/12/04 07:15:14;;;;;;;115.72;64.82;;;25.90;2201.60;;;;;;5041023;28;20055;-72
2021/12/04 07:17:40;;;;;;;107.53;63.45;;;26.00;2201.60;;;;;;5042275;28;20491;-72
2021/12/04 07:20:07;;;;;;;111.97;57.58;;;26.10;2201.60;;;;;;5040738;28;20123;-72
2021/12/04 07:22:34;;;;;;;95.90;56.53;;;26.20;2201.60;;;;;;5060326;28;20494;-72
2021/12/04 07:25:00;;;;;;;106.60;57.10;;;26.20;2201.60;;;;;;5061810;28;20027;-72
2021/12/04 07:27:28;;;;;;;93.45;53.10;;;26.30;2201.60;;;;;;5038117;28;20033;-72
2021/12/04 07:29:55;;;;;;;106.25;59.05;;;26.30;2201.60;;;;;;5041355;28;20121;-72
2021/12/04 07:32:21;;;;;;;107.95;60.55;;;26.40;2201.60;;;;;;5043900;28;20029;-73
2021/12/04 07:34:47;;;;;;;104.95;61.17;;;26.50;2201.60;;;;;;5058866;28;20079;-70
2021/12/04 07:37:13;;;;;;;115.68;64.88;;;51.20;2227.20;;;;;;5041704;28;20395;-70
2021/12/04 07:39:39;;;;;;;105.03;57.88;;;51.20;2227.20;;;;;;5057876;28;20115;-70
2021/12/04 07:42:05;;;;;;;106.25;64.03;;;51.30;2227.20;;;;;;5059790;28;20505;-70
2021/12/04 07:44:31;;;;;;;100.55;59.40;;;51.40;2227.20;;;;;;5064434;28;20029;-70
2021/12/04 07:46:57;;;;;;;112.75;64.85;;;51.50;2227.20;;;;;;5061634;28;20094;-70
2021/12/04 07:49:23;;;;;;;132.68;76.05;;;51.60;2227.20;;;;;;5058979;28;20483;-71
2021/12/04 07:51:50;;;;;;;133.10;73.85;;;51.70;2227.20;;;;;;5062537;28;20029;-70
2021/12/04 07:54:16;;;;;;;122.43;66.63;;;51.90;2227.20;;;;;;5046289;28;20074;-70
2021/12/04 07:56:43;;;;;;;111.45;60.78;;;52.00;2227.20;;;;;;5041239;28;20020;-70
2021/12/04 07:59:08;;;;;;;99.85;59.92;;;52.10;2227.20;;;;;;5063748;28;20166;-69
2021/12/04 08:01:35;;;;;;;78.57;48.38;;;76.80;2227.20;;;;;;5065455;28;20112;-69
2021/12/04 08:04:01;;;;;;;81.68;48.10;;;76.90;2227.20;;;;;;5066397;28;20043;-69
2021/12/04 08:06:26;;;;;;;92.88;53.63;;;77.00;2227.20;;;;;;5061001;28;20464;-69
2021/12/04 08:08:58;;;;;;;81.10;45.53;;;77.10;2227.20;;;;;;5065187;28;20787;-69
2021/12/04 08:11:27;;;;;;;73.65;42.75;;;77.20;2227.20;;;;;;5063974;28;20240;-69
2021/12/04 08:13:53;;;;;;;72.68;45.00;;;77.30;2227.20;;;;;;5064707;28;20013;-69
2021/12/04 08:16:24;;;;;;;63.08;39.20;;;77.50;2227.20;;;;;;5033955;28;20032;-69
2021/12/04 08:18:51;;;;;;;59.33;35.97;;;77.50;2227.20;;;;;;5046474;28;20415;-69
2021/12/04 08:21:17;;;;;;;54.17;31.65;;;77.60;2227.20;;;;;;5065053;28;20029;-69
2021/12/04 08:23:43;;;;;;;41.67;25.65;;;77.70;2227.20;;;;;;5066132;28;20104;-69
2021/12/04 08:26:09;;;;;;;36.17;23.20;;;77.70;2227.20;;;;;;5061051;28;20126;-69
2021/12/04 08:28:35;;;;;;;42.40;23.88;;;77.70;2227.20;;;;;;5067028;28;20029;-69
2021/12/04 08:31:00;;;;;;;40.20;23.17;;;77.70;2227.20;;;;;;5062747;28;20021;-70
2021/12/04 08:33:26;;;;;;;40.45;24.02;;;102.40;2227.20;;;;;;5066783;28;20102;-69
2021/12/04 08:35:52;;;;;;;47.92;30.58;;;102.40;2227.20;;;;;;5063504;28;20111;-70
2021/12/04 08:38:18;;;;;;;52.65;30.20;;;102.50;2227.20;;;;;;5046263;28;20042;-70
2021/12/04 08:40:44;;;;;;;52.60;30.48;;;102.60;2227.20;;;;;;5041833;28;20040;-70
2021/12/04 08:43:11;;;;;;;47.15;29.88;;;102.70;2227.20;;;;;;5063404;28;20145;-70
2021/12/04 08:45:38;;;;;;;58.45;32.22;;;102.80;2227.20;;;;;;5065763;28;20845;-71
2021/12/04 08:48:05;;;;;;;47.65;29.13;;;102.90;2227.20;;;;;;5059814;28;20033;-70
2021/12/04 08:50:32;;;;;;;42.05;26.92;;;103.20;2227.20;;;;;;5034898;28;20708;-70
2021/12/04 08:53:01;;;;;;;46.30;28.10;;;103.20;2227.20;;;;;;5051692;28;20021;-70
2021/12/04 08:55:28;;;;;;;45.60;28.30;;;128.00;2252.80;;;;;;5052133;28;20082;-70
2021/12/04 08:57:54;;;;;;;43.75;25.30;;;128.20;2252.80;;;;;;5033508;28;20029;-70
2021/12/04 09:00:22;;;;;;;38.13;22.27;;;128.40;2252.80;;;;;;5052008;28;20036;-70
2021/12/04 09:02:49;;;;;;;37.97;22.70;;;128.60;2252.80;;;;;;5032861;28;20035;-70
2021/12/04 09:05:16;;;;;;;41.95;23.17;;;153.70;2252.80;;;;;;5051744;28;20087;-71
2021/12/04 09:07:42;;;;;;;33.08;20.38;;;154.10;2252.80;;;;;;5051162;28;20060;-71
2021/12/04 09:10:09;;;;;;;31.95;20.52;;;154.40;2252.80;;;;;;5052108;28;20033;-70
2021/12/04 09:12:35;;;;;;;40.28;24.95;;;179.30;2252.80;;;;;;5033655;28;20168;-71
2021/12/04 09:15:03;;;;;;;34.95;20.58;;;179.60;2252.80;;;;;;5051323;28;20518;-71
2021/12/04 09:17:29;;;;;;;33.42;20.58;;;180.00;2252.80;;;;;;5051773;28;20397;-70
2021/12/04 09:19:55;;;;;;;33.83;18.52;;;180.10;2252.80;;;;;;5050833;28;20037;-71
2021/12/04 09:22:26;;;;;;;40.13;21.77;;;204.90;2252.80;;;;;;5033607;28;20025;-71
2021/12/04 09:24:56;;;;;;;42.17;22.35;;;205.10;2252.80;;;;;;5052385;28;20975;-71
2021/12/04 09:33:15;;;;;;;40.72;22.77;;;205.30;2252.80;;;;;;5050832;28;20031;-71
2021/12/04 10:00:58;;;;;;;34.92;21.23;;;205.60;2252.80;;;;;;5050622;28;20716;-71
2021/12/04 10:22:32;;;;;;;21.67;12.73;;;231.20;2252.80;;;;;;4982247;28;20723;-71
2021/12/04 10:33:43;;;;;;;29.45;16.80;;;256.00;2252.80;;;;;;4931469;29;20213;-71
2021/12/04 10:36:09;;;;;;;44.00;23.85;;;256.20;2252.80;;;;;;4937626;29;20549;-71
2021/12/04 10:38:43;;;;;;;28.48;16.77;;;256.20;2252.80;;;;;;4968135;28;20506;-72
2021/12/04 10:41:12;;;;;;;24.70;15.10;;;256.30;2252.80;;;;;;4967705;28;20057;-72
2021/12/04 10:43:37;;;;;;;30.33;19.33;;;256.40;2252.80;;;;;;4973232;28;20034;-71
2021/12/04 10:46:15;;;;;;;26.90;17.92;;;256.50;2252.80;;;;;;4954001;28;20053;-72
2021/12/04 10:48:49;;;;;;;50.17;30.65;;;256.40;2252.80;;;;;;4954117;28;20031;-71
2021/12/04 10:53:49;;;;;;;32.47;20.67;;;256.80;2252.80;;;;;;4983044;28;20389;-72
2021/12/04 10:59:32;;;;;;;30.35;19.67;;;256.70;2252.80;;;;;;4917989;29;20499;-70
2021/12/04 11:04:43;;;;;;;32.92;21.80;;;282.10;2278.40;;;;;;4922904;29;20160;-71
2021/12/04 11:24:05;;;;;;;30.05;18.10;;;256.10;2252.80;;;;;;4978443;28;20022;-70
2021/12/04 11:27:18;;;;;;;35.50;20.35;;;256.00;2252.80;;;;;;4981989;28;20393;-72
2021/12/04 11:42:57;;;;;;;32.63;20.48;;;230.50;2252.80;;;;;;5040067;28;20028;-71
2021/12/04 11:45:29;;;;;;;35.80;23.20;;;230.40;2252.80;;;;;;5039204;28;20017;-71
2021/12/04 11:48:02;;;;;;;20.42;14.32;;;230.50;2252.80;;;;;;5038776;28;20057;-73
2021/12/04 11:50:37;;;;;;;30.85;14.70;;;205.60;2252.80;;;;;;5025264;28;20040;-72
2021/12/04 11:53:11;;;;;;;29.83;16.92;;;205.50;2252.80;;;;;;5019469;28;20034;-73
2021/12/04 11:55:42;;;;;;;32.22;20.38;;;205.40;2252.80;;;;;;5032463;28;20038;-73
2021/12/04 11:58:25;;;;;;;35.15;20.70;;;205.40;2252.80;;;;;;5040995;28;20084;-73
2021/12/04 12:00:54;;;;;;;36.22;23.67;;;230.40;2252.80;;;;;;5020767;28;20120;-73
2021/12/04 12:03:25;;;;;;;30.42;16.60;;;230.40;2252.80;;;;;;5024400;28;20126;-73
2021/12/04 12:05:57;;;;;;;27.45;16.73;;;230.50;2252.80;;;;;;5021767;28;20112;-73
2021/12/04 12:08:28;;;;;;;38.53;21.98;;;205.50;2252.80;;;;;;5033436;28;20056;-73
2021/12/04 12:10:59;;;;;;;36.67;21.25;;;205.50;2252.80;;;;;;5049862;28;20025;-73
2021/12/04 12:13:35;;;;;;;35.60;20.77;;;205.50;2252.80;;;;;;5039630;28;20033;-72
2021/12/04 12:16:21;;;;;;;31.60;15.98;;;205.50;2252.80;;;;;;5039186;28;20395;-71
2021/12/04 12:25:41;;;;;;;27.35;15.63;;;205.40;2252.80;;;;;;5044627;28;20099;-72
2021/12/04 12:36:31;;;;;;;22.50;13.38;;;230.80;2252.80;;;;;;4969952;28;20131;-72
2021/12/04 12:38:59;;;;;;;25.05;12.63;;;231.10;2252.80;;;;;;4967920;28;20034;-72
2021/12/04 12:41:35;;;;;;;19.02;10.68;;;230.70;2252.80;;;;;;4966350;28;20047;-72
2021/12/04 12:44:00;;;;;;;14.35;10.05;;;230.50;2252.80;;;;;;4966486;28;20027;-72
2021/12/04 12:46:59;;;;;;;30.33;18.15;;;205.70;2252.80;;;;;;4967354;28;20412;-74
2021/12/04 12:49:24;;;;;;;29.92;16.92;;;205.50;2252.80;;;;;;4969395;28;20027;-73
2021/12/04 12:55:32;;;;;;;19.38;12.30;;;204.90;2252.80;;;;;;4962679;28;20085;-74
2021/12/04 12:57:58;;;;;;;31.35;19.65;;;180.00;2252.80;;;;;;4964506;28;20074;-72
2021/12/04 13:13:53;;;;;;;43.83;26.13;;;180.10;2252.80;;;;;;5046667;28;20027;-70
2021/12/04 13:19:38;;;;;;;36.23;22.20;;;180.00;2252.80;;;;;;5051544;28;20067;-74
2021/12/04 13:22:42;;;;;;;38.97;22.65;;;180.00;2252.80;;;;;;5053473;28;20278;-72
2021/12/04 13:25:11;;;;;;;42.65;25.80;;;179.90;2252.80;;;;;;5043224;28;20032;-71
2021/12/04 13:30:20;;;;;;;28.17;19.52;;;179.70;2252.80;;;;;;5050503;28;20028;-72
2021/12/04 13:32:46;;;;;;;33.50;21.55;;;179.70;2252.80;;;;;;5038485;28;20398;-71
2021/12/04 13:35:21;;;;;;;46.25;27.35;;;179.60;2252.80;;;;;;5029363;28;20037;-71
2021/12/04 13:37:51;;;;;;;29.42;19.50;;;179.60;2252.80;;;;;;5046599;28;20028;-71
2021/12/04 13:40:19;;;;;;;28.58;18.90;;;179.50;2252.80;;;;;;5028561;28;20365;-77
2021/12/04 13:42:45;;;;;;;27.75;18.35;;;179.50;2252.80;;;;;;5051434;28;20021;-73
2021/12/04 13:45:30;;;;;;;32.92;20.40;;;179.40;2252.80;;;;;;5044784;28;20023;-73
2021/12/04 13:48:16;;;;;;;32.15;20.20;;;179.40;2252.80;;;;;;5043717;28;20017;-73
2021/12/04 13:53:37;;;;;;;31.20;19.25;;;179.50;2252.80;;;;;;5043312;28;20029;-73
2021/12/04 13:56:25;;;;;;;22.90;17.10;;;179.30;2252.80;;;;;;5041647;28;20040;-73
2021/12/04 13:58:57;;;;;;;29.60;18.63;;;179.30;2252.80;;;;;;5046268;28;20112;-74
2021/12/04 14:01:39;;;;;;;33.00;22.83;;;179.20;2252.80;;;;;;5039952;28;20130;-72
2021/12/04 14:04:07;;;;;;;44.25;27.63;;;154.50;2252.80;;;;;;5046949;28;20025;-73
2021/12/04 14:06:34;;;;;;;37.90;25.45;;;154.40;2252.80;;;;;;5039656;28;20051;-74
2021/12/04 14:09:06;;;;;;;44.53;28.00;;;154.30;2252.80;;;;;;5044163;28;20028;-71
2021/12/04 14:11:38;;;;;;;59.70;36.75;;;154.30;2252.80;;;;;;5041351;28;20060;-71
2021/12/04 14:14:24;;;;;;;53.08;35.17;;;154.20;2252.80;;;;;;5043322;28;20099;-70
2021/12/04 14:17:16;;;;;;;61.05;39.55;;;154.20;2252.80;;;;;;5049412;28;20023;-71
2021/12/04 14:19:49;;;;;;;52.80;34.38;;;154.20;2252.80;;;;;;5045291;28;20036;-70
2021/12/04 14:22:17;;;;;;;76.07;42.35;;;154.30;2252.80;;;;;;5046270;28;20411;-72
2021/12/04 14:27:37;;;;;;;71.50;42.85;;;154.20;2252.80;;;;;;5041878;28;20130;-71
2021/12/04 14:30:38;;;;;;;60.13;35.97;;;154.20;2252.80;;;;;;5029375;28;20445;-71
2021/12/04 14:33:07;;;;;;;68.47;40.55;;;154.20;2252.80;;;;;;5045280;28;20492;-73
2021/12/04 14:35:39;;;;;;;57.13;36.28;;;154.00;2252.80;;;;;;5041901;28;20454;-73
2021/12/04 14:38:10;;;;;;;62.47;37.45;;;154.00;2252.80;;;;;;5039295;28;20065;-73
2021/12/04 14:40:45;;;;;;;64.40;36.65;;;153.80;2252.80;;;;;;5039549;28;20065;-73
2021/12/04 14:46:23;;;;;;;63.22;40.42;;;153.60;2252.80;;;;;;5040289;28;20478;-73
2021/12/04 14:49:04;;;;;;;51.30;33.83;;;128.90;2252.80;;;;;;5037656;28;20037;-73
2021/12/04 14:51:30;;;;;;;55.97;33.80;;;128.80;2252.80;;;;;;5030120;28;20040;-73
2021/12/04 14:57:18;;;;;;;51.47;33.50;;;128.50;2252.80;;;;;;5044819;28;20052;-73
2021/12/04 15:00:16;;;;;;;63.63;38.75;;;128.50;2252.80;;;;;;5034951;28;20052;-73
2021/12/04 15:03:16;;;;;;;69.43;42.42;;;128.40;2252.80;;;;;;5042551;28;20487;-73
2021/12/04 15:06:04;;;;;;;71.75;38.83;;;128.30;2252.80;;;;;;5044024;28;20400;-73
2021/12/04 15:08:34;;;;;;;67.13;38.25;;;128.30;2252.80;;;;;;5040709;28;20085;-72
2021/12/04 15:14:32;;;;;;;76.32;44.67;;;128.20;2252.80;;;;;;5048772;28;20831;-73
2021/12/04 15:17:26;;;;;;;66.32;40.50;;;128.10;2252.80;;;;;;5029614;28;20473;-73
2021/12/04 15:20:17;;;;;;;58.85;36.25;;;128.00;2252.80;;;;;;5038521;28;20041;-73
2021/12/04 15:25:54;;;;;;;59.10;34.72;;;103.30;2227.20;;;;;;5042275;28;20383;-73
2021/12/04 15:28:22;;;;;;;68.95;40.47;;;103.20;2227.20;;;;;;5040769;28;20040;-73
2021/12/04 15:30:52;;;;;;;70.72;43.28;;;103.20;2227.20;;;;;;5047903;28;20017;-73
2021/12/04 15:33:46;;;;;;;70.50;42.80;;;103.20;2227.20;;;;;;5048313;28;20416;-72
2021/12/04 15:36:42;;;;;;;85.07;49.55;;;103.20;2227.20;;;;;;5028995;28;20123;-73
2021/12/04 15:39:19;;;;;;;72.55;44.95;;;103.10;2227.20;;;;;;5040826;28;20087;-73
2021/12/04 15:42:08;;;;;;;85.10;50.42;;;103.10;2227.20;;;;;;5043539;28;20037;-71
2021/12/04 15:53:09;;;;;;;78.07;50.92;;;102.90;2227.20;;;;;;5046104;28;20031;-72
2021/12/04 15:55:56;;;;;;;75.50;46.10;;;103.10;2227.20;;;;;;5045430;28;20101;-72
2021/12/04 15:58:36;;;;;;;74.20;44.55;;;103.00;2227.20;;;;;;5041293;28;20498;-70
2021/12/04 16:01:08;;;;;;;70.93;40.35;;;103.00;2227.20;;;;;;5030271;28;20091;-70
2021/12/04 16:03:50;;;;;;;78.05;46.60;;;103.00;2227.20;;;;;;5030934;28;20434;-74
2021/12/04 16:06:18;;;;;;;105.18;59.72;;;103.00;2227.20;;;;;;5046870;28;20440;-72
2021/12/04 16:08:44;;;;;;;89.15;57.67;;;103.00;2227.20;;;;;;5056006;28;20037;-71